sensor_id;sensor_type;location;lat;lon;timestamp;P1;durP1;ratioP1;P2;durP2;ratioP2
29546;SDS011;40782;47.264;11.330;2022-11-20T00:01:21;12.02;;;9.13;;
29546;SDS011;40782;47.264;11.330;2022-11-20T00:03:50;10.90;;;8.90;;
29546;SDS011;40782;47.264;11.330;2022-11-20T00:06:19;12.60;;;8.98;;
29546;SDS011;40782;47.264;11.330;2022-11-20T00:08:47;14.50;;;9.40;;
29546;SDS011;40782;47.264;11.330;2022-11-20T00:11:15;14.07;;;9.27;;
29546;SDS011;40782;47.264;11.330;2022-11-20T00:13:44;12.93;;;9.20;;
29546;SDS011;40782;47.264;11.330;2022-11-20T00:16:15;13.93;;;9.60;;
29546;SDS011;40782;47.264;11.330;2022-11-20T00:18:44;11.48;;;8.27;;
29546;SDS011;40782;47.264;11.330;2022-11-20T00:21:12;10.88;;;8.07;;
29546;SDS011;40782;47.264;11.330;2022-11-20T00:23:40;12.02;;;8.93;;
29546;SDS011;40782;47.264;11.330;2022-11-20T00:26:08;11.20;;;8.90;;
29546;SDS011;40782;47.264;11.330;2022-11-20T00:28:36;13.77;;;9.60;;
29546;SDS011;40782;47.264;11.330;2022-11-20T00:31:05;13.00;;;8.45;;
29546;SDS011;40782;47.264;11.330;2022-11-20T00:33:35;12.63;;;8.75;;
29546;SDS011;40782;47.264;11.330;2022-11-20T00:36:02;10.70;;;8.07;;
29546;SDS011;40782;47.264;11.330;2022-11-20T00:38:32;11.43;;;8.60;;
29546;SDS011;40782;47.264;11.330;2022-11-20T00:41:01;12.98;;;8.40;;
29546;SDS011;40782;47.264;11.330;2022-11-20T00:43:31;11.32;;;8.55;;
29546;SDS011;40782;47.264;11.330;2022-11-20T00:45:59;14.43;;;8.15;;
29546;SDS011;40782;47.264;11.330;2022-11-20T00:48:26;10.55;;;7.32;;
29546;SDS011;40782;47.264;11.330;2022-11-20T00:50:55;11.55;;;7.57;;
29546;SDS011;40782;47.264;11.330;2022-11-20T00:53:22;9.70;;;7.80;;
29546;SDS011;40782;47.264;11.330;2022-11-20T00:55:53;13.25;;;8.48;;
29546;SDS011;40782;47.264;11.330;2022-11-20T00:58:21;10.03;;;7.90;;
29546;SDS011;40782;47.264;11.330;2022-11-20T01:00:49;8.73;;;7.00;;
29546;SDS011;40782;47.264;11.330;2022-11-20T01:03:16;8.27;;;6.57;;
29546;SDS011;40782;47.264;11.330;2022-11-20T01:05:44;9.82;;;6.47;;
29546;SDS011;40782;47.264;11.330;2022-11-20T01:08:13;8.82;;;6.95;;
29546;SDS011;40782;47.264;11.330;2022-11-20T01:10:40;6.82;;;5.78;;
29546;SDS011;40782;47.264;11.330;2022-11-20T01:13:07;9.38;;;6.38;;
29546;SDS011;40782;47.264;11.330;2022-11-20T01:15:51;9.73;;;6.68;;
29546;SDS011;40782;47.264;11.330;2022-11-20T01:18:19;9.93;;;6.90;;
29546;SDS011;40782;47.264;11.330;2022-11-20T01:20:46;11.98;;;7.85;;
29546;SDS011;40782;47.264;11.330;2022-11-20T01:23:14;11.88;;;7.65;;
29546;SDS011;40782;47.264;11.330;2022-11-20T01:25:41;11.68;;;8.57;;
29546;SDS011;40782;47.264;11.330;2022-11-20T01:28:08;12.30;;;7.80;;
29546;SDS011;40782;47.264;11.330;2022-11-20T01:30:35;11.25;;;8.23;;
29546;SDS011;40782;47.264;11.330;2022-11-20T01:33:03;10.93;;;8.80;;
29546;SDS011;40782;47.264;11.330;2022-11-20T01:35:30;13.48;;;8.52;;
29546;SDS011;40782;47.264;11.330;2022-11-20T01:37:57;10.98;;;8.30;;
29546;SDS011;40782;47.264;11.330;2022-11-20T01:40:25;9.70;;;7.78;;
29546;SDS011;40782;47.264;11.330;2022-11-20T01:42:55;10.00;;;8.38;;
29546;SDS011;40782;47.264;11.330;2022-11-20T01:45:56;9.30;;;8.10;;
29546;SDS011;40782;47.264;11.330;2022-11-20T01:48:46;11.50;;;8.68;;
29546;SDS011;40782;47.264;11.330;2022-11-20T01:51:22;12.70;;;8.63;;
29546;SDS011;40782;47.264;11.330;2022-11-20T01:53:55;12.73;;;8.43;;
29546;SDS011;40782;47.264;11.330;2022-11-20T01:56:28;9.93;;;7.88;;
29546;SDS011;40782;47.264;11.330;2022-11-20T01:58:58;12.52;;;8.50;;
29546;SDS011;40782;47.264;11.330;2022-11-20T02:01:27;11.55;;;8.60;;
29546;SDS011;40782;47.264;11.330;2022-11-20T02:03:54;9.38;;;7.80;;
29546;SDS011;40782;47.264;11.330;2022-11-20T02:06:23;11.75;;;8.15;;
29546;SDS011;40782;47.264;11.330;2022-11-20T02:08:52;12.02;;;8.98;;
29546;SDS011;40782;47.264;11.330;2022-11-20T02:11:20;10.55;;;7.53;;
29546;SDS011;40782;47.264;11.330;2022-11-20T02:13:49;11.82;;;7.90;;
29546;SDS011;40782;47.264;11.330;2022-11-20T02:16:17;11.32;;;7.95;;
29546;SDS011;40782;47.264;11.330;2022-11-20T02:18:47;11.60;;;7.95;;
29546;SDS011;40782;47.264;11.330;2022-11-20T02:21:20;11.20;;;7.95;;
29546;SDS011;40782;47.264;11.330;2022-11-20T02:24:02;11.23;;;8.13;;
29546;SDS011;40782;47.264;11.330;2022-11-20T02:26:33;10.15;;;7.53;;
29546;SDS011;40782;47.264;11.330;2022-11-20T02:29:04;10.93;;;7.40;;
29546;SDS011;40782;47.264;11.330;2022-11-20T02:31:38;11.50;;;8.40;;
29546;SDS011;40782;47.264;11.330;2022-11-20T02:34:08;13.57;;;9.43;;
29546;SDS011;40782;47.264;11.330;2022-11-20T02:36:36;12.93;;;9.68;;
29546;SDS011;40782;47.264;11.330;2022-11-20T02:39:10;16.00;;;10.50;;
29546;SDS011;40782;47.264;11.330;2022-11-20T02:41:41;14.57;;;10.15;;
29546;SDS011;40782;47.264;11.330;2022-11-20T02:44:09;14.27;;;9.10;;
29546;SDS011;40782;47.264;11.330;2022-11-20T02:46:36;12.68;;;8.55;;
29546;SDS011;40782;47.264;11.330;2022-11-20T02:49:03;11.25;;;7.80;;
29546;SDS011;40782;47.264;11.330;2022-11-20T02:51:31;11.70;;;9.25;;
29546;SDS011;40782;47.264;11.330;2022-11-20T02:53:59;11.05;;;8.73;;
29546;SDS011;40782;47.264;11.330;2022-11-20T02:56:27;11.43;;;8.77;;
29546;SDS011;40782;47.264;11.330;2022-11-20T02:58:54;12.18;;;8.55;;
29546;SDS011;40782;47.264;11.330;2022-11-20T03:01:22;13.10;;;8.18;;
29546;SDS011;40782;47.264;11.330;2022-11-20T03:03:49;11.25;;;8.70;;
29546;SDS011;40782;47.264;11.330;2022-11-20T03:06:19;10.63;;;7.63;;
29546;SDS011;40782;47.264;11.330;2022-11-20T03:08:46;12.52;;;8.90;;
29546;SDS011;40782;47.264;11.330;2022-11-20T03:11:13;15.55;;;9.35;;
29546;SDS011;40782;47.264;11.330;2022-11-20T03:13:42;10.55;;;8.30;;
29546;SDS011;40782;47.264;11.330;2022-11-20T03:16:10;11.45;;;8.05;;
29546;SDS011;40782;47.264;11.330;2022-11-20T03:18:38;9.25;;;7.40;;
29546;SDS011;40782;47.264;11.330;2022-11-20T03:21:06;12.45;;;8.43;;
29546;SDS011;40782;47.264;11.330;2022-11-20T03:23:35;11.90;;;8.10;;
29546;SDS011;40782;47.264;11.330;2022-11-20T03:26:09;11.68;;;8.90;;
29546;SDS011;40782;47.264;11.330;2022-11-20T03:28:38;12.30;;;8.73;;
29546;SDS011;40782;47.264;11.330;2022-11-20T03:31:09;10.82;;;7.97;;
29546;SDS011;40782;47.264;11.330;2022-11-20T03:33:38;13.65;;;9.10;;
29546;SDS011;40782;47.264;11.330;2022-11-20T03:36:06;11.98;;;8.40;;
29546;SDS011;40782;47.264;11.330;2022-11-20T03:38:35;12.27;;;9.88;;
29546;SDS011;40782;47.264;11.330;2022-11-20T03:41:03;13.82;;;9.50;;
29546;SDS011;40782;47.264;11.330;2022-11-20T03:43:33;10.65;;;9.30;;
29546;SDS011;40782;47.264;11.330;2022-11-20T03:46:01;17.40;;;10.25;;
29546;SDS011;40782;47.264;11.330;2022-11-20T03:48:30;11.75;;;8.90;;
29546;SDS011;40782;47.264;11.330;2022-11-20T03:51:07;13.40;;;8.82;;
29546;SDS011;40782;47.264;11.330;2022-11-20T03:53:36;13.32;;;9.25;;
29546;SDS011;40782;47.264;11.330;2022-11-20T03:56:03;11.20;;;8.30;;
29546;SDS011;40782;47.264;11.330;2022-11-20T03:58:32;11.43;;;8.65;;
29546;SDS011;40782;47.264;11.330;2022-11-20T04:01:04;10.82;;;8.77;;
29546;SDS011;40782;47.264;11.330;2022-11-20T04:06:01;12.18;;;9.10;;
29546;SDS011;40782;47.264;11.330;2022-11-20T04:08:29;13.75;;;8.80;;
29546;SDS011;40782;47.264;11.330;2022-11-20T04:10:57;9.98;;;8.00;;
29546;SDS011;40782;47.264;11.330;2022-11-20T04:13:35;11.90;;;8.52;;
29546;SDS011;40782;47.264;11.330;2022-11-20T04:16:02;16.05;;;9.65;;
29546;SDS011;40782;47.264;11.330;2022-11-20T04:18:29;11.25;;;7.63;;
29546;SDS011;40782;47.264;11.330;2022-11-20T04:20:58;12.00;;;8.48;;
29546;SDS011;40782;47.264;11.330;2022-11-20T04:23:26;12.45;;;8.57;;
29546;SDS011;40782;47.264;11.330;2022-11-20T04:25:53;11.32;;;8.95;;
29546;SDS011;40782;47.264;11.330;2022-11-20T04:28:20;11.50;;;8.73;;
29546;SDS011;40782;47.264;11.330;2022-11-20T04:30:47;13.18;;;9.50;;
29546;SDS011;40782;47.264;11.330;2022-11-20T04:33:14;13.10;;;9.10;;
29546;SDS011;40782;47.264;11.330;2022-11-20T04:35:41;10.98;;;9.00;;
29546;SDS011;40782;47.264;11.330;2022-11-20T04:38:12;11.10;;;7.95;;
29546;SDS011;40782;47.264;11.330;2022-11-20T04:40:39;11.90;;;8.80;;
29546;SDS011;40782;47.264;11.330;2022-11-20T04:43:06;12.40;;;8.65;;
29546;SDS011;40782;47.264;11.330;2022-11-20T04:45:33;10.57;;;8.32;;
29546;SDS011;40782;47.264;11.330;2022-11-20T04:48:00;11.73;;;8.52;;
29546;SDS011;40782;47.264;11.330;2022-11-20T04:50:27;12.82;;;8.63;;
29546;SDS011;40782;47.264;11.330;2022-11-20T04:52:54;12.52;;;9.18;;
29546;SDS011;40782;47.264;11.330;2022-11-20T04:55:23;15.75;;;9.65;;
29546;SDS011;40782;47.264;11.330;2022-11-20T04:57:50;14.40;;;9.50;;
29546;SDS011;40782;47.264;11.330;2022-11-20T05:00:17;14.45;;;8.80;;
29546;SDS011;40782;47.264;11.330;2022-11-20T05:02:45;10.02;;;7.50;;
29546;SDS011;40782;47.264;11.330;2022-11-20T05:05:12;8.60;;;7.70;;
29546;SDS011;40782;47.264;11.330;2022-11-20T05:07:39;7.72;;;6.93;;
29546;SDS011;40782;47.264;11.330;2022-11-20T05:10:06;9.65;;;7.43;;
29546;SDS011;40782;47.264;11.330;2022-11-20T05:12:36;9.57;;;7.10;;
29546;SDS011;40782;47.264;11.330;2022-11-20T05:15:03;9.10;;;7.53;;
29546;SDS011;40782;47.264;11.330;2022-11-20T05:17:31;8.43;;;7.10;;
29546;SDS011;40782;47.264;11.330;2022-11-20T05:19:58;9.07;;;7.18;;
29546;SDS011;40782;47.264;11.330;2022-11-20T05:22:25;8.75;;;7.40;;
29546;SDS011;40782;47.264;11.330;2022-11-20T05:24:52;9.23;;;6.88;;
29546;SDS011;40782;47.264;11.330;2022-11-20T05:27:19;11.00;;;7.50;;
29546;SDS011;40782;47.264;11.330;2022-11-20T05:29:48;9.00;;;7.10;;
29546;SDS011;40782;47.264;11.330;2022-11-20T05:32:15;9.40;;;7.32;;
29546;SDS011;40782;47.264;11.330;2022-11-20T05:34:42;9.85;;;7.22;;
29546;SDS011;40782;47.264;11.330;2022-11-20T05:37:09;9.20;;;6.88;;
29546;SDS011;40782;47.264;11.330;2022-11-20T05:39:36;8.80;;;6.82;;
29546;SDS011;40782;47.264;11.330;2022-11-20T05:42:04;9.05;;;6.80;;
29546;SDS011;40782;47.264;11.330;2022-11-20T05:44:52;7.60;;;6.32;;
29546;SDS011;40782;47.264;11.330;2022-11-20T05:47:19;8.40;;;6.53;;
29546;SDS011;40782;47.264;11.330;2022-11-20T05:49:46;10.52;;;7.32;;
29546;SDS011;40782;47.264;11.330;2022-11-20T05:52:13;8.50;;;6.80;;
29546;SDS011;40782;47.264;11.330;2022-11-20T05:54:41;8.70;;;7.22;;
29546;SDS011;40782;47.264;11.330;2022-11-20T05:57:08;12.05;;;8.23;;
29546;SDS011;40782;47.264;11.330;2022-11-20T05:59:35;10.27;;;7.78;;
29546;SDS011;40782;47.264;11.330;2022-11-20T06:02:03;10.23;;;6.72;;
29546;SDS011;40782;47.264;11.330;2022-11-20T06:04:30;8.35;;;6.90;;
29546;SDS011;40782;47.264;11.330;2022-11-20T06:06:58;10.40;;;6.95;;
29546;SDS011;40782;47.264;11.330;2022-11-20T06:09:25;9.98;;;8.65;;
29546;SDS011;40782;47.264;11.330;2022-11-20T06:11:52;11.18;;;9.63;;
29546;SDS011;40782;47.264;11.330;2022-11-20T06:14:19;11.63;;;9.60;;
29546;SDS011;40782;47.264;11.330;2022-11-20T06:16:46;11.02;;;8.35;;
29546;SDS011;40782;47.264;11.330;2022-11-20T06:19:15;10.65;;;8.52;;
29546;SDS011;40782;47.264;11.330;2022-11-20T06:21:42;10.13;;;8.55;;
29546;SDS011;40782;47.264;11.330;2022-11-20T06:24:09;10.15;;;7.38;;
29546;SDS011;40782;47.264;11.330;2022-11-20T06:26:37;11.85;;;7.63;;
29546;SDS011;40782;47.264;11.330;2022-11-20T06:29:04;8.60;;;7.53;;
29546;SDS011;40782;47.264;11.330;2022-11-20T06:31:31;10.75;;;6.97;;
29546;SDS011;40782;47.264;11.330;2022-11-20T06:34:00;8.68;;;7.07;;
29546;SDS011;40782;47.264;11.330;2022-11-20T06:36:28;8.43;;;6.50;;
29546;SDS011;40782;47.264;11.330;2022-11-20T06:38:56;8.73;;;7.25;;
29546;SDS011;40782;47.264;11.330;2022-11-20T06:41:23;8.45;;;7.07;;
29546;SDS011;40782;47.264;11.330;2022-11-20T06:43:50;9.25;;;7.38;;
29546;SDS011;40782;47.264;11.330;2022-11-20T06:46:18;8.75;;;7.32;;
29546;SDS011;40782;47.264;11.330;2022-11-20T06:48:46;8.50;;;6.82;;
29546;SDS011;40782;47.264;11.330;2022-11-20T06:51:14;9.82;;;7.50;;
29546;SDS011;40782;47.264;11.330;2022-11-20T06:53:42;10.23;;;7.82;;
29546;SDS011;40782;47.264;11.330;2022-11-20T06:56:10;10.43;;;7.55;;
29546;SDS011;40782;47.264;11.330;2022-11-20T06:58:37;9.00;;;6.97;;
29546;SDS011;40782;47.264;11.330;2022-11-20T07:01:05;7.63;;;6.82;;
29546;SDS011;40782;47.264;11.330;2022-11-20T07:03:33;10.80;;;7.15;;
29546;SDS011;40782;47.264;11.330;2022-11-20T07:06:01;10.20;;;7.68;;
29546;SDS011;40782;47.264;11.330;2022-11-20T07:08:29;10.00;;;6.82;;
29546;SDS011;40782;47.264;11.330;2022-11-20T07:10:58;8.63;;;6.90;;
29546;SDS011;40782;47.264;11.330;2022-11-20T07:13:26;9.32;;;7.40;;
29546;SDS011;40782;47.264;11.330;2022-11-20T07:15:54;11.98;;;7.20;;
29546;SDS011;40782;47.264;11.330;2022-11-20T07:18:21;9.23;;;7.25;;
29546;SDS011;40782;47.264;11.330;2022-11-20T07:20:48;8.70;;;7.07;;
29546;SDS011;40782;47.264;11.330;2022-11-20T07:23:15;10.25;;;7.57;;
29546;SDS011;40782;47.264;11.330;2022-11-20T07:25:42;8.82;;;7.25;;
29546;SDS011;40782;47.264;11.330;2022-11-20T07:28:11;9.80;;;7.35;;
29546;SDS011;40782;47.264;11.330;2022-11-20T07:30:38;9.68;;;7.55;;
29546;SDS011;40782;47.264;11.330;2022-11-20T07:33:05;11.60;;;8.65;;
29546;SDS011;40782;47.264;11.330;2022-11-20T07:35:33;9.18;;;7.63;;
29546;SDS011;40782;47.264;11.330;2022-11-20T07:38:00;10.90;;;7.55;;
29546;SDS011;40782;47.264;11.330;2022-11-20T07:40:28;13.13;;;7.88;;
29546;SDS011;40782;47.264;11.330;2022-11-20T07:42:55;11.80;;;8.05;;
29546;SDS011;40782;47.264;11.330;2022-11-20T07:45:23;10.98;;;8.48;;
29546;SDS011;40782;47.264;11.330;2022-11-20T07:47:50;10.63;;;7.72;;
29546;SDS011;40782;47.264;11.330;2022-11-20T07:50:18;9.13;;;6.93;;
29546;SDS011;40782;47.264;11.330;2022-11-20T07:52:46;14.00;;;7.63;;
29546;SDS011;40782;47.264;11.330;2022-11-20T07:55:13;10.82;;;7.55;;
29546;SDS011;40782;47.264;11.330;2022-11-20T07:57:41;8.38;;;7.13;;
29546;SDS011;40782;47.264;11.330;2022-11-20T08:00:09;10.18;;;7.60;;
29546;SDS011;40782;47.264;11.330;2022-11-20T08:02:39;12.23;;;7.50;;
29546;SDS011;40782;47.264;11.330;2022-11-20T08:05:07;7.90;;;7.10;;
29546;SDS011;40782;47.264;11.330;2022-11-20T08:07:35;11.90;;;8.00;;
29546;SDS011;40782;47.264;11.330;2022-11-20T08:10:04;8.23;;;6.72;;
29546;SDS011;40782;47.264;11.330;2022-11-20T08:12:31;7.65;;;6.65;;
29546;SDS011;40782;47.264;11.330;2022-11-20T08:15:16;8.85;;;6.63;;
29546;SDS011;40782;47.264;11.330;2022-11-20T08:17:45;8.23;;;7.03;;
29546;SDS011;40782;47.264;11.330;2022-11-20T08:20:12;9.93;;;6.82;;
29546;SDS011;40782;47.264;11.330;2022-11-20T08:22:39;8.30;;;7.05;;
29546;SDS011;40782;47.264;11.330;2022-11-20T08:25:07;9.80;;;7.97;;
29546;SDS011;40782;47.264;11.330;2022-11-20T08:27:34;10.38;;;7.07;;
29546;SDS011;40782;47.264;11.330;2022-11-20T08:30:01;8.43;;;6.88;;
29546;SDS011;40782;47.264;11.330;2022-11-20T08:32:29;7.40;;;6.70;;
29546;SDS011;40782;47.264;11.330;2022-11-20T08:34:58;7.82;;;6.38;;
29546;SDS011;40782;47.264;11.330;2022-11-20T08:37:25;8.32;;;6.88;;
29546;SDS011;40782;47.264;11.330;2022-11-20T08:39:52;8.32;;;7.03;;
29546;SDS011;40782;47.264;11.330;2022-11-20T08:42:22;7.82;;;6.35;;
29546;SDS011;40782;47.264;11.330;2022-11-20T08:44:49;9.63;;;6.28;;
29546;SDS011;40782;47.264;11.330;2022-11-20T08:47:16;9.23;;;6.43;;
29546;SDS011;40782;47.264;11.330;2022-11-20T08:49:43;7.90;;;6.57;;
29546;SDS011;40782;47.264;11.330;2022-11-20T08:52:11;8.40;;;6.20;;
29546;SDS011;40782;47.264;11.330;2022-11-20T08:54:39;7.50;;;6.57;;
29546;SDS011;40782;47.264;11.330;2022-11-20T08:57:06;8.82;;;7.03;;
29546;SDS011;40782;47.264;11.330;2022-11-20T08:59:33;8.63;;;7.00;;
29546;SDS011;40782;47.264;11.330;2022-11-20T09:02:00;10.50;;;7.30;;
29546;SDS011;40782;47.264;11.330;2022-11-20T09:04:27;7.22;;;6.22;;
29546;SDS011;40782;47.264;11.330;2022-11-20T09:06:55;12.18;;;7.05;;
29546;SDS011;40782;47.264;11.330;2022-11-20T09:09:23;10.20;;;6.93;;
29546;SDS011;40782;47.264;11.330;2022-11-20T09:11:50;9.50;;;6.22;;
29546;SDS011;40782;47.264;11.330;2022-11-20T09:14:23;7.50;;;6.13;;
29546;SDS011;40782;47.264;11.330;2022-11-20T09:16:54;7.10;;;6.18;;
29546;SDS011;40782;47.264;11.330;2022-11-20T09:19:21;8.80;;;5.97;;
29546;SDS011;40782;47.264;11.330;2022-11-20T09:21:49;7.88;;;6.50;;
29546;SDS011;40782;47.264;11.330;2022-11-20T09:24:17;8.68;;;6.93;;
29546;SDS011;40782;47.264;11.330;2022-11-20T09:26:47;9.63;;;7.03;;
29546;SDS011;40782;47.264;11.330;2022-11-20T09:29:14;9.75;;;5.97;;
29546;SDS011;40782;47.264;11.330;2022-11-20T09:31:41;8.68;;;6.07;;
29546;SDS011;40782;47.264;11.330;2022-11-20T09:34:08;7.57;;;5.95;;
29546;SDS011;40782;47.264;11.330;2022-11-20T09:36:35;7.07;;;6.03;;
29546;SDS011;40782;47.264;11.330;2022-11-20T09:39:03;7.65;;;6.03;;
29546;SDS011;40782;47.264;11.330;2022-11-20T09:41:36;5.80;;;5.28;;
29546;SDS011;40782;47.264;11.330;2022-11-20T09:44:30;6.18;;;4.68;;
29546;SDS011;40782;47.264;11.330;2022-11-20T09:47:07;6.72;;;5.50;;
29546;SDS011;40782;47.264;11.330;2022-11-20T09:49:43;5.30;;;4.80;;
29546;SDS011;40782;47.264;11.330;2022-11-20T09:52:26;7.63;;;4.95;;
29546;SDS011;40782;47.264;11.330;2022-11-20T09:55:02;4.70;;;4.30;;
29546;SDS011;40782;47.264;11.330;2022-11-20T09:57:35;6.10;;;5.10;;
29546;SDS011;40782;47.264;11.330;2022-11-20T10:00:08;6.15;;;4.80;;
29546;SDS011;40782;47.264;11.330;2022-11-20T10:02:40;5.95;;;5.13;;
29546;SDS011;40782;47.264;11.330;2022-11-20T10:05:15;6.22;;;5.63;;
29546;SDS011;40782;47.264;11.330;2022-11-20T10:07:47;9.43;;;6.20;;
29546;SDS011;40782;47.264;11.330;2022-11-20T10:10:22;8.85;;;5.97;;
29546;SDS011;40782;47.264;11.330;2022-11-20T10:13:02;6.03;;;5.43;;
29546;SDS011;40782;47.264;11.330;2022-11-20T10:15:44;6.22;;;5.35;;
29546;SDS011;40782;47.264;11.330;2022-11-20T10:18:22;8.35;;;6.70;;
29546;SDS011;40782;47.264;11.330;2022-11-20T10:20:57;6.50;;;5.82;;
29546;SDS011;40782;47.264;11.330;2022-11-20T10:26:38;11.70;;;6.80;;
29546;SDS011;40782;47.264;11.330;2022-11-20T10:29:13;6.47;;;5.82;;
29546;SDS011;40782;47.264;11.330;2022-11-20T10:31:43;7.85;;;6.18;;
29546;SDS011;40782;47.264;11.330;2022-11-20T10:34:15;7.30;;;6.20;;
29546;SDS011;40782;47.264;11.330;2022-11-20T10:36:46;6.57;;;5.90;;
29546;SDS011;40782;47.264;11.330;2022-11-20T10:39:21;6.57;;;5.97;;
29546;SDS011;40782;47.264;11.330;2022-11-20T10:41:56;6.93;;;6.22;;
29546;SDS011;40782;47.264;11.330;2022-11-20T10:44:26;5.82;;;5.32;;
29546;SDS011;40782;47.264;11.330;2022-11-20T10:47:13;7.38;;;5.93;;
29546;SDS011;40782;47.264;11.330;2022-11-20T10:49:42;6.15;;;5.55;;
29546;SDS011;40782;47.264;11.330;2022-11-20T10:52:12;5.88;;;5.30;;
29546;SDS011;40782;47.264;11.330;2022-11-20T10:54:45;6.22;;;5.57;;
29546;SDS011;40782;47.264;11.330;2022-11-20T10:57:23;5.53;;;4.95;;
29546;SDS011;40782;47.264;11.330;2022-11-20T11:00:02;4.78;;;4.15;;
29546;SDS011;40782;47.264;11.330;2022-11-20T11:02:34;6.63;;;5.22;;
29546;SDS011;40782;47.264;11.330;2022-11-20T11:05:11;5.93;;;5.20;;
29546;SDS011;40782;47.264;11.330;2022-11-20T11:07:44;7.43;;;5.60;;
29546;SDS011;40782;47.264;11.330;2022-11-20T11:10:14;5.85;;;5.28;;
29546;SDS011;40782;47.264;11.330;2022-11-20T11:12:44;3.30;;;3.08;;
29546;SDS011;40782;47.264;11.330;2022-11-20T11:15:14;3.85;;;3.55;;
29546;SDS011;40782;47.264;11.330;2022-11-20T11:17:53;4.85;;;4.45;;
29546;SDS011;40782;47.264;11.330;2022-11-20T11:20:21;4.15;;;3.67;;
29546;SDS011;40782;47.264;11.330;2022-11-20T11:22:50;3.97;;;3.50;;
29546;SDS011;40782;47.264;11.330;2022-11-20T11:25:29;5.05;;;4.05;;
29546;SDS011;40782;47.264;11.330;2022-11-20T11:27:59;4.78;;;4.05;;
29546;SDS011;40782;47.264;11.330;2022-11-20T11:30:29;4.30;;;3.90;;
29546;SDS011;40782;47.264;11.330;2022-11-20T11:33:10;4.68;;;4.28;;
29546;SDS011;40782;47.264;11.330;2022-11-20T11:35:45;4.10;;;3.70;;
29546;SDS011;40782;47.264;11.330;2022-11-20T11:38:14;3.60;;;3.30;;
29546;SDS011;40782;47.264;11.330;2022-11-20T11:40:45;3.20;;;2.40;;
29546;SDS011;40782;47.264;11.330;2022-11-20T11:43:20;3.28;;;3.05;;
29546;SDS011;40782;47.264;11.330;2022-11-20T11:46:12;3.08;;;2.72;;
29546;SDS011;40782;47.264;11.330;2022-11-20T11:48:58;2.88;;;2.67;;
29546;SDS011;40782;47.264;11.330;2022-11-20T11:51:28;3.97;;;3.60;;
29546;SDS011;40782;47.264;11.330;2022-11-20T11:54:00;3.47;;;3.17;;
29546;SDS011;40782;47.264;11.330;2022-11-20T11:56:32;3.83;;;3.42;;
29546;SDS011;40782;47.264;11.330;2022-11-20T11:59:04;3.42;;;3.13;;
29546;SDS011;40782;47.264;11.330;2022-11-20T12:01:38;3.95;;;3.65;;
29546;SDS011;40782;47.264;11.330;2022-11-20T12:04:13;5.40;;;3.13;;
29546;SDS011;40782;47.264;11.330;2022-11-20T12:06:47;4.10;;;3.70;;
29546;SDS011;40782;47.264;11.330;2022-11-20T12:09:23;3.15;;;2.95;;
29546;SDS011;40782;47.264;11.330;2022-11-20T12:11:58;3.28;;;3.08;;
29546;SDS011;40782;47.264;11.330;2022-11-20T12:14:35;3.33;;;3.03;;
29546;SDS011;40782;47.264;11.330;2022-11-20T12:17:05;3.35;;;3.05;;
29546;SDS011;40782;47.264;11.330;2022-11-20T12:19:36;2.72;;;2.50;;
29546;SDS011;40782;47.264;11.330;2022-11-20T12:22:05;3.67;;;2.70;;
29546;SDS011;40782;47.264;11.330;2022-11-20T12:24:44;4.85;;;2.80;;
29546;SDS011;40782;47.264;11.330;2022-11-20T12:27:30;2.35;;;2.22;;
29546;SDS011;40782;47.264;11.330;2022-11-20T12:30:10;3.45;;;3.15;;
29546;SDS011;40782;47.264;11.330;2022-11-20T12:32:47;3.17;;;2.88;;
29546;SDS011;40782;47.264;11.330;2022-11-20T12:35:42;3.58;;;2.83;;
29546;SDS011;40782;47.264;11.330;2022-11-20T12:38:26;4.43;;;2.90;;
29546;SDS011;40782;47.264;11.330;2022-11-20T12:41:03;4.30;;;2.90;;
29546;SDS011;40782;47.264;11.330;2022-11-20T12:43:40;3.15;;;2.72;;
29546;SDS011;40782;47.264;11.330;2022-11-20T12:49:12;2.55;;;2.35;;
29546;SDS011;40782;47.264;11.330;2022-11-20T12:51:59;3.03;;;2.73;;
29546;SDS011;40782;47.264;11.330;2022-11-20T12:54:46;3.10;;;2.90;;
29546;SDS011;40782;47.264;11.330;2022-11-20T12:57:33;2.95;;;2.75;;
29546;SDS011;40782;47.264;11.330;2022-11-20T13:00:11;3.28;;;2.97;;
29546;SDS011;40782;47.264;11.330;2022-11-20T13:02:46;4.13;;;2.78;;
29546;SDS011;40782;47.264;11.330;2022-11-20T13:05:43;3.08;;;2.88;;
29546;SDS011;40782;47.264;11.330;2022-11-20T13:08:20;4.55;;;2.90;;
29546;SDS011;40782;47.264;11.330;2022-11-20T13:10:52;3.67;;;3.38;;
29546;SDS011;40782;47.264;11.330;2022-11-20T13:13:29;3.45;;;2.35;;
29546;SDS011;40782;47.264;11.330;2022-11-20T13:16:02;2.90;;;2.70;;
29546;SDS011;40782;47.264;11.330;2022-11-20T13:18:37;3.40;;;3.10;;
29546;SDS011;40782;47.264;11.330;2022-11-20T13:21:15;3.13;;;2.63;;
29546;SDS011;40782;47.264;11.330;2022-11-20T13:23:45;3.17;;;2.45;;
29546;SDS011;40782;47.264;11.330;2022-11-20T13:26:14;2.75;;;2.42;;
29546;SDS011;40782;47.264;11.330;2022-11-20T13:28:45;2.78;;;2.45;;
29546;SDS011;40782;47.264;11.330;2022-11-20T13:31:30;2.58;;;2.38;;
29546;SDS011;40782;47.264;11.330;2022-11-20T13:33:59;2.50;;;2.30;;
29546;SDS011;40782;47.264;11.330;2022-11-20T13:36:28;2.25;;;2.10;;
29546;SDS011;40782;47.264;11.330;2022-11-20T13:38:58;4.28;;;2.10;;
29546;SDS011;40782;47.264;11.330;2022-11-20T13:41:26;2.80;;;2.05;;
29546;SDS011;40782;47.264;11.330;2022-11-20T13:44:04;2.75;;;2.13;;
29546;SDS011;40782;47.264;11.330;2022-11-20T13:46:39;2.78;;;2.25;;
29546;SDS011;40782;47.264;11.330;2022-11-20T13:49:09;2.60;;;2.40;;
29546;SDS011;40782;47.264;11.330;2022-11-20T13:51:43;1.88;;;1.70;;
29546;SDS011;40782;47.264;11.330;2022-11-20T13:54:25;1.10;;;1.08;;
29546;SDS011;40782;47.264;11.330;2022-11-20T13:57:28;1.17;;;1.08;;
29546;SDS011;40782;47.264;11.330;2022-11-20T14:00:11;1.50;;;1.40;;
29546;SDS011;40782;47.264;11.330;2022-11-20T14:02:39;1.30;;;1.08;;
29546;SDS011;40782;47.264;11.330;2022-11-20T14:05:11;2.25;;;1.00;;
29546;SDS011;40782;47.264;11.330;2022-11-20T14:07:45;2.47;;;0.95;;
29546;SDS011;40782;47.264;11.330;2022-11-20T14:10:22;0.70;;;0.70;;
29546;SDS011;40782;47.264;11.330;2022-11-20T14:12:51;0.80;;;0.80;;
29546;SDS011;40782;47.264;11.330;2022-11-20T14:15:25;0.80;;;0.80;;
29546;SDS011;40782;47.264;11.330;2022-11-20T14:17:53;1.00;;;1.00;;
29546;SDS011;40782;47.264;11.330;2022-11-20T14:20:21;0.57;;;0.57;;
29546;SDS011;40782;47.264;11.330;2022-11-20T14:22:53;0.77;;;0.77;;
29546;SDS011;40782;47.264;11.330;2022-11-20T14:25:23;1.02;;;0.80;;
29546;SDS011;40782;47.264;11.330;2022-11-20T14:27:52;0.70;;;0.70;;
29546;SDS011;40782;47.264;11.330;2022-11-20T14:30:22;0.63;;;0.63;;
29546;SDS011;40782;47.264;11.330;2022-11-20T14:32:51;0.80;;;0.80;;
29546;SDS011;40782;47.264;11.330;2022-11-20T14:35:21;1.27;;;1.17;;
29546;SDS011;40782;47.264;11.330;2022-11-20T14:37:51;1.73;;;1.50;;
29546;SDS011;40782;47.264;11.330;2022-11-20T14:40:24;2.97;;;1.25;;
29546;SDS011;40782;47.264;11.330;2022-11-20T14:42:54;2.80;;;1.98;;
29546;SDS011;40782;47.264;11.330;2022-11-20T14:45:21;1.63;;;1.52;;
29546;SDS011;40782;47.264;11.330;2022-11-20T14:47:49;1.92;;;1.83;;
29546;SDS011;40782;47.264;11.330;2022-11-20T14:50:18;2.05;;;1.80;;
29546;SDS011;40782;47.264;11.330;2022-11-20T14:52:51;2.50;;;2.13;;
29546;SDS011;40782;47.264;11.330;2022-11-20T14:57:56;2.42;;;2.15;;
29546;SDS011;40782;47.264;11.330;2022-11-20T15:00:25;3.10;;;2.55;;